createdAt,value
2019-05-02T00:00:12.895Z,100448.40
2019-05-02T00:04:20.112Z,100438.14
2019-05-02T00:08:22.665Z,100428.52
2019-05-02T00:12:26.311Z,100439.51
2019-05-02T00:16:30.549Z,100430.26
2019-05-02T00:20:34.191Z,100424.81
2019-05-02T00:24:39.176Z,100427.73
2019-05-02T00:28:48.095Z,100422.66
2019-05-02T00:32:48.293Z,100421.23
2019-05-02T00:36:51.779Z,100412.59
2019-05-02T00:40:57.437Z,100417.50
2019-05-02T00:45:00.906Z,100415.92
2019-05-02T00:49:04.437Z,100416.95
2019-05-02T00:53:12.198Z,100410.81
2019-05-02T00:57:14.962Z,100398.50
2019-05-02T01:01:31.009Z,100401.71
2019-05-02T01:05:38.470Z,100397.55
2019-05-02T01:09:42.095Z,100394.27
2019-05-02T01:13:45.665Z,100391.19
2019-05-02T01:17:49.130Z,100381.14
2019-05-02T01:21:52.598Z,100389.56
2019-05-02T01:25:56.091Z,100383.62
2019-05-02T01:30:10.074Z,100384.68
2019-05-02T01:34:19.249Z,100375.09
2019-05-02T01:38:26.247Z,100374.54
2019-05-02T01:42:39.546Z,100361.39
2019-05-02T01:46:35.468Z,100365.51
2019-05-02T01:50:39.043Z,100361.09
2019-05-02T01:54:45.677Z,100354.68
2019-05-02T01:58:47.752Z,100353.55
2019-05-02T02:02:51.278Z,100340.25
2019-05-02T02:06:54.761Z,100344.45
2019-05-02T02:10:58.427Z,100326.28
2019-05-02T02:15:01.910Z,100326.28
2019-05-02T02:19:16.091Z,100320.69
2019-05-02T02:23:23.653Z,100319.30
2019-05-02T02:27:27.150Z,100313.69
2019-05-02T02:31:30.777Z,100306.47
2019-05-02T02:35:34.553Z,100305.75
2019-05-02T02:39:38.091Z,100297.83
2019-05-02T02:43:42.029Z,100300.52
2019-05-02T02:47:45.859Z,100293.77
2019-05-02T02:51:49.680Z,100295.52
2019-05-02T02:56:01.054Z,100286.55
2019-05-02T03:00:06.297Z,100281.06
2019-05-02T03:04:09.091Z,100279.17
2019-05-02T03:08:10.070Z,100276.37
2019-05-02T03:12:21.139Z,100263.02
2019-05-02T03:16:25.527Z,100263.02
2019-05-02T03:20:39.985Z,100261.25
2019-05-02T03:24:36.635Z,100256.94
2019-05-02T03:28:39.784Z,100254.27
2019-05-02T03:33:03.011Z,100253.56
2019-05-02T03:36:48.472Z,100248.09
2019-05-02T03:40:52.028Z,100237.84
2019-05-02T03:45:00.222Z,100233.07
2019-05-02T03:49:07.178Z,100225.85
2019-05-02T03:53:06.547Z,100222.83
2019-05-02T03:57:10.303Z,100216.87
2019-05-02T04:01:14.155Z,100216.30
2019-05-02T04:05:18.275Z,100214.44
2019-05-02T04:09:32.023Z,100214.44
2019-05-02T04:13:36.201Z,100207.67
2019-05-02T04:17:40.056Z,100201.64
2019-05-02T04:21:43.766Z,100204.43
2019-05-02T04:25:48.566Z,100204.31
2019-05-02T04:29:52.045Z,100207.33
2019-05-02T04:33:55.866Z,100202.44
2019-05-02T04:38:02.723Z,100201.16
2019-05-02T04:42:13.186Z,100195.31
2019-05-02T04:46:18.044Z,100196.59
2019-05-02T04:50:18.559Z,100190.06
2019-05-02T04:54:25.650Z,100195.66
2019-05-02T04:58:29.672Z,100187.59
2019-05-02T05:02:36.646Z,100187.59
2019-05-02T05:06:38.071Z,100190.25
2019-05-02T05:10:44.989Z,100193.74
2019-05-02T05:14:47.534Z,100185.55
2019-05-02T05:18:53.086Z,100188.38
2019-05-02T05:22:58.113Z,100188.55
2019-05-02T05:27:01.707Z,100191.61
2019-05-02T05:31:07.509Z,100200.98
2019-05-02T05:35:12.873Z,100202.98
2019-05-02T05:39:17.585Z,100208.80
2019-05-02T05:43:21.335Z,100206.58
2019-05-02T05:47:24.826Z,100208.91
2019-05-02T05:51:28.318Z,100204.78
2019-05-02T05:55:32.204Z,100205.94
2019-05-02T05:59:38.013Z,100210.53
2019-05-02T06:03:44.863Z,100212.52
2019-05-02T06:07:47.481Z,100203.04
2019-05-02T06:11:55.415Z,100202.07
2019-05-02T06:16:02.768Z,100204.22
2019-05-02T06:20:01.803Z,100198.54
2019-05-02T06:24:05.692Z,100200.91
2019-05-02T06:28:09.329Z,100198.81
2019-05-02T06:32:14.086Z,100206.56
2019-05-02T06:36:18.382Z,100196.31
2019-05-02T06:40:22.132Z,100198.77
2019-05-02T06:44:25.637Z,100186.01
2019-05-02T06:48:29.522Z,100173.66
2019-05-02T06:52:34.624Z,100173.66
2019-05-02T06:56:38.283Z,100173.22
2019-05-02T07:00:56.792Z,100174.86
2019-05-02T07:04:47.387Z,100178.33
2019-05-02T07:08:50.969Z,100172.45
2019-05-02T07:13:09.818Z,100172.33
2019-05-02T07:17:05.838Z,100175.15
2019-05-02T07:21:12.164Z,100159.55
2019-05-02T07:25:18.038Z,100161.56
2019-05-02T07:29:23.004Z,100167.07
2019-05-02T07:33:26.602Z,100167.87
2019-05-02T07:37:30.083Z,100164.82
2019-05-02T07:41:33.569Z,100162.80
2019-05-02T07:45:40.223Z,100163.88
2019-05-02T07:49:42.687Z,100163.08
2019-05-02T07:53:48.527Z,100158.75
2019-05-02T07:57:52.050Z,100162.68
2019-05-02T08:01:55.877Z,100156.17
2019-05-02T08:06:00.041Z,100158.31
2019-05-02T08:10:04.911Z,100156.95
2019-05-02T08:14:08.465Z,100153.81
2019-05-02T08:18:12.581Z,100159.66
2019-05-02T08:22:16.179Z,100149.19
2019-05-02T08:26:21.588Z,100160.52
2019-05-02T08:30:26.507Z,100164.48
2019-05-02T08:34:31.648Z,100162.80
2019-05-02T08:38:35.466Z,100158.01
2019-05-02T08:42:39.287Z,100154.98
2019-05-02T08:46:46.132Z,100170.92
2019-05-02T08:50:48.030Z,100162.36
2019-05-02T08:54:51.537Z,100170.50
2019-05-02T08:58:55.376Z,100168.40
2019-05-02T09:03:02.536Z,100171.20
2019-05-02T09:07:04.692Z,100179.64
2019-05-02T09:11:08.150Z,100173.55
2019-05-02T09:15:12.390Z,100175.91
2019-05-02T09:19:21.319Z,100182.00
2019-05-02T09:23:22.829Z,100184.05
2019-05-02T09:27:26.824Z,100188.09
2019-05-02T09:31:31.984Z,100191.53
2019-05-02T09:35:35.667Z,100192.17
2019-05-02T09:39:39.164Z,100182.48
2019-05-02T09:43:42.711Z,100174.91
2019-05-02T09:47:56.286Z,100169.20
2019-05-02T09:51:59.296Z,100166.71
2019-05-02T09:55:58.071Z,100164.55
2019-05-02T10:00:02.206Z,100164.92
2019-05-02T10:04:06.217Z,100164.85
2019-05-02T10:08:13.466Z,100160.50
2019-05-02T10:12:15.226Z,100166.70
2019-05-02T10:16:25.616Z,100155.19
2019-05-02T10:20:31.882Z,100153.66
2019-05-02T10:24:29.611Z,100139.42
2019-05-02T10:28:33.427Z,100141.01
2019-05-02T10:32:36.920Z,100138.47
2019-05-02T10:36:44.755Z,100136.06
2019-05-02T10:40:48.494Z,100124.92
2019-05-02T10:44:52.144Z,100131.87
2019-05-02T10:49:01.970Z,100134.92
2019-05-02T10:53:11.974Z,100127.89
2019-05-02T10:57:12.606Z,100119.73
2019-05-02T11:01:18.107Z,100119.92
2019-05-02T11:05:26.457Z,100110.17
2019-05-02T11:09:29.326Z,100104.89
2019-05-02T11:13:53.348Z,100091.78
2019-05-02T11:17:55.408Z,100082.27
2019-05-02T11:21:59.306Z,100084.58
2019-05-02T11:26:02.787Z,100080.98
2019-05-02T11:30:09.180Z,100078.84
2019-05-02T11:34:12.807Z,100072.45
2019-05-02T11:38:43.549Z,100066.76
2019-05-02T11:42:23.205Z,100051.05
2019-05-02T11:46:27.198Z,100058.77
2019-05-02T11:50:31.977Z,100059.07
2019-05-02T11:54:39.180Z,100046.11
2019-05-02T11:58:48.164Z,100049.75
2019-05-02T12:02:56.271Z,100042.62
2019-05-02T12:07:00.992Z,100040.00
2019-05-02T12:11:03.864Z,100039.59
2019-05-02T12:15:07.997Z,100029.55
2019-05-02T12:19:14.725Z,100030.30
2019-05-02T12:23:17.328Z,100031.63
2019-05-02T12:27:22.067Z,100033.74
2019-05-02T12:31:29.330Z,100030.19
2019-05-02T12:35:32.818Z,100017.03
2019-05-02T12:39:36.762Z,100017.03
2019-05-02T12:43:41.615Z,100017.16
2019-05-02T12:47:45.201Z,100009.45
2019-05-02T12:51:48.933Z,100012.69
2019-05-02T12:55:52.825Z,100006.50
2019-05-02T12:59:56.377Z,100003.52
2019-05-02T13:04:02.769Z,100010.27
2019-05-02T13:08:06.427Z,100005.22
2019-05-02T13:12:20.323Z,100006.25
2019-05-02T13:16:24.075Z,99997.64
2019-05-02T13:20:29.408Z,99987.61
2019-05-02T13:24:34.676Z,99984.66
2019-05-02T13:28:38.185Z,99985.62
2019-05-02T13:32:43.445Z,99971.50
2019-05-02T13:36:51.735Z,99961.59
2019-05-02T13:40:55.272Z,99956.09
2019-05-02T13:49:18.249Z,99946.56
2019-05-02T13:53:22.659Z,99954.58
2019-05-02T13:57:26.283Z,99955.34
2019-05-02T14:01:31.567Z,99948.47
2019-05-02T14:05:37.193Z,99939.81
2019-05-02T14:09:44.041Z,99945.67
2019-05-02T14:13:48.005Z,99942.67
2019-05-02T14:17:52.473Z,99938.23
2019-05-02T14:21:56.143Z,99932.98
2019-05-02T14:25:59.628Z,99928.41
2019-05-02T14:30:04.127Z,99929.09
2019-05-02T14:34:24.598Z,99927.68
2019-05-02T14:38:28.082Z,99926.02
2019-05-02T14:42:32.274Z,99932.53
2019-05-02T14:46:39.408Z,99930.36
2019-05-02T14:50:45.547Z,99927.66
2019-05-02T14:54:48.078Z,99927.02
2019-05-02T14:58:52.798Z,99924.41
2019-05-02T15:02:56.520Z,99918.47
2019-05-02T15:07:02.040Z,99917.97
2019-05-02T15:11:06.770Z,99907.00
2019-05-02T15:15:12.238Z,99909.00
2019-05-02T15:19:16.141Z,99913.36
2019-05-02T15:23:20.074Z,99914.34
2019-05-02T15:27:23.582Z,99908.67
2019-05-02T15:31:31.662Z,99911.62
2019-05-02T15:35:36.013Z,99904.68
2019-05-02T15:43:49.035Z,99908.16
2019-05-02T15:47:52.463Z,99895.83
2019-05-02T15:51:55.727Z,99897.53
2019-05-02T15:55:59.532Z,99898.05
2019-05-02T16:00:05.651Z,99877.02
2019-05-02T16:04:12.727Z,99880.52
2019-05-02T16:08:16.441Z,99875.35
2019-05-02T16:12:19.976Z,99876.22
2019-05-02T16:16:23.453Z,99875.26
2019-05-02T16:20:34.620Z,99875.02
2019-05-02T16:24:38.128Z,99883.48
2019-05-02T16:28:45.462Z,99879.25
2019-05-02T16:32:52.260Z,99885.39
2019-05-02T16:37:16.534Z,99869.88
2019-05-02T16:41:18.071Z,99874.58
2019-05-02T16:45:22.582Z,99875.66
2019-05-02T16:49:26.093Z,99875.66
2019-05-02T16:53:31.126Z,99885.59
2019-05-02T16:57:35.279Z,99886.25
2019-05-02T17:01:39.135Z,99884.87
2019-05-02T17:05:44.114Z,99877.58
2019-05-02T17:10:02.814Z,99880.47
2019-05-02T17:14:11.595Z,99883.16
2019-05-02T17:18:13.313Z,99903.19
2019-05-02T17:22:21.952Z,99918.23
2019-05-02T17:26:23.068Z,99913.95
2019-05-02T17:30:30.894Z,99909.84
2019-05-02T17:34:34.813Z,99902.05
2019-05-02T17:38:37.425Z,99902.17
2019-05-02T17:42:44.541Z,99898.06
2019-05-02T17:46:50.733Z,99896.08
2019-05-02T17:50:59.428Z,99894.50
2019-05-02T17:55:03.974Z,99907.05
2019-05-02T17:59:07.435Z,99899.23
2019-05-02T18:03:12.419Z,99907.26
2019-05-02T18:07:18.894Z,99920.25
2019-05-02T18:11:22.691Z,99917.34
2019-05-02T18:15:29.977Z,99926.97
2019-05-02T18:19:31.651Z,99938.74
2019-05-02T18:23:35.656Z,99945.76
2019-05-02T18:27:39.201Z,99951.98
2019-05-02T18:31:47.299Z,99960.14
2019-05-02T18:35:52.502Z,99973.00
2019-05-02T18:39:56.061Z,99978.27
2019-05-02T18:44:00.056Z,99987.73
2019-05-02T18:48:06.697Z,99996.52
2019-05-02T18:52:09.344Z,100005.03
2019-05-02T18:56:13.036Z,100015.81
2019-05-02T19:00:17.179Z,100019.04
2019-05-02T19:04:22.130Z,100019.04
2019-05-02T19:08:31.340Z,100022.70
2019-05-02T19:12:32.748Z,100024.91
2019-05-02T19:16:36.669Z,100024.91
2019-05-02T19:20:57.550Z,100024.13
2019-05-02T19:25:01.926Z,100027.42
2019-05-02T19:29:12.790Z,100032.58
2019-05-02T19:33:13.387Z,100033.28
2019-05-02T19:37:17.061Z,100034.02
2019-05-02T19:41:22.191Z,100035.77
2019-05-02T19:45:26.804Z,100039.48
2019-05-02T19:49:32.475Z,100037.76
2019-05-02T19:53:35.861Z,100030.42
2019-05-02T19:58:07.331Z,100039.64
2019-05-02T20:02:11.905Z,100036.48
2019-05-02T20:06:16.036Z,100037.31
2019-05-02T20:10:19.865Z,100048.87
2019-05-02T20:14:24.614Z,100048.16
2019-05-02T20:18:28.333Z,100050.48
2019-05-02T20:22:36.178Z,100042.80
2019-05-02T20:30:42.194Z,100053.98
2019-05-02T20:34:46.154Z,100055.50
2019-05-02T20:38:50.014Z,100059.92
2019-05-02T20:42:53.680Z,100054.67
2019-05-02T20:46:57.469Z,100063.06
2019-05-02T20:51:02.666Z,100060.97
2019-05-02T20:55:07.473Z,100064.25
2019-05-02T20:59:12.759Z,100068.91
2019-05-02T21:03:16.352Z,100062.85
2019-05-02T21:07:27.808Z,100078.11
2019-05-02T21:11:32.425Z,100075.89
2019-05-02T21:15:36.174Z,100077.30
2019-05-02T21:19:41.683Z,100081.72
2019-05-02T21:23:47.711Z,100074.97
2019-05-02T21:27:52.235Z,100078.70
2019-05-02T21:31:55.474Z,100087.08
2019-05-02T21:35:58.954Z,100082.77
2019-05-02T21:40:02.862Z,100090.58
2019-05-02T21:44:06.427Z,100092.20
2019-05-02T21:48:09.934Z,100094.77
2019-05-02T21:52:15.041Z,100084.64
2019-05-02T21:56:21.757Z,100090.69
2019-05-02T22:00:38.559Z,100090.69
2019-05-02T22:04:42.532Z,100101.52
2019-05-02T22:08:46.112Z,100107.11
2019-05-02T22:12:51.561Z,100103.22
2019-05-02T22:16:54.872Z,100101.58
2019-05-02T22:20:58.680Z,100103.80
2019-05-02T22:25:02.366Z,100107.52
2019-05-02T22:29:06.207Z,100105.41
2019-05-02T22:33:11.770Z,100111.11
2019-05-02T22:37:16.912Z,100117.86
2019-05-02T22:41:22.113Z,100114.59
2019-05-02T22:45:26.098Z,100131.58
2019-05-02T22:49:31.686Z,100136.91
2019-05-02T22:53:34.801Z,100139.91
2019-05-02T22:57:38.390Z,100141.65
2019-05-02T23:01:42.352Z,100148.11
2019-05-02T23:05:46.113Z,100147.59
2019-05-02T23:09:49.580Z,100149.86
2019-05-02T23:13:53.158Z,100148.55
2019-05-02T23:17:57.049Z,100148.84
2019-05-02T23:22:02.120Z,100151.62
2019-05-02T23:26:16.575Z,100150.38
2019-05-02T23:30:22.633Z,100159.72
2019-05-02T23:34:26.181Z,100169.13
2019-05-02T23:38:32.210Z,100160.78
2019-05-02T23:42:35.281Z,100168.92
2019-05-02T23:46:39.047Z,100165.13
2019-05-02T23:50:42.572Z,100169.20
2019-05-02T23:54:52.035Z,100165.13
2019-05-02T23:58:51.961Z,100159.24
